Flugplatz Verden-Scharnhorst

Für EDWV sind keine METAR/TAF Berichte vorhanden.
Es werden die Flugwettermeldungen vom Flugplatz Bremen in 34 km Entfernung angezeigt.

Bericht für EDDW

vom 07.03. um 01:20 UTC

Wind 5 kt aus 270°

Sichtweite 10 km oder mehr

aufgebrochene Bewölkung in 2800 ft

Temperatur -2.0°C

Taupunkt -3.0°C

Luftfeuchtigkeit 93%

Luftdruck 1028 hPa

EDDW 070120Z 27005KT 9999 BKN028 M02/M03 Q1028

Prognose für EDDW

vom 06.03. um 23:00 UTC

Zwischen 00:00 UTC und 08:00 UTC

Wind 5 kt aus 260°

Sichtweite 10 km oder mehr

aufgebrochene Bewölkung in 3000 ft


Zwischen 02:00 UTC und 07:00 UTC zeitweise mit einer Wahrscheinlichkeit von 30%

Sichtweite 4000 m

feuchter Dunst

aufgebrochene Bewölkung in 1200 ft


Zwischen 08:00 und 10:00 UTC übergehend zu

Wind 10 kt aus 300°

Sichtweite 10 km oder mehr

aufgebrochene Bewölkung in 3000 ft


Zwischen 17:00 und 19:00 UTC übergehend zu

Wind 5 kt aus 280°

Sichtweite 10 km oder mehr

aufgebrochene Bewölkung in 1200 ft


Zwischen 20:00 UTC und 00:00 UTC zeitweise

Sichtweite 3500 m

schwacher Regen

aufgebrochene Bewölkung in 600 ft

TAF EDDW 062300Z 0700/0724 26005KT 9999 BKN030 PROB30 TEMPO 0702/0707 4000 BR BKN012 BECMG 0708/0710 30010KT BECMG 0717/0719 28005KT BKN012 TEMPO 0720/0724 3500 -RA BKN006
Impressum